Kernville, CA (93238)

1:30 PM PST on December 06, 2016 (GMT -0800)
| | Change Station

Elev -9999 ft 0.00 °N, 0.00 °E | Updated

Partly Cloudy
Partly Cloudy
48 °F
Feels Like 48 °F
N
14
Wind Variable Wind from WNW
Gusts 21 mph

Today
High -- | Low -- °F
--% Chance of Precip.
Yesterday
High -- | Low -- °F
Precip. -- in
Pressure 29.76 in
Visibility 10.0 miles
Clouds Few 25000 ft
Mostly Cloudy 30000 ft
Dew Point 32 °F
Humidity 54%
Rainfall --
Snow Depth Not available.
6:50 AM 4:39 PM
Waxing Crescent, 45% visible
METAR KNID 062056Z 20021G30KT 10SM FEW250 BKN300 18/M09 A2976 RMK AO2 PK WND 20033/2040 SLP076 T01831094 58030 $
Pressure 29.76 in
Visibility 10.0 miles
Clouds Few 25000 ft
Mostly Cloudy 30000 ft
Dew Point 32 °F
Humidity 54%
Rainfall --
Snow Depth Not available.
6:50 AM 4:39 PM
Waxing Crescent, 45% visible
METAR KNID 062056Z 20021G30KT 10SM FEW250 BKN300 18/M09 A2976 RMK AO2 PK WND 20033/2040 SLP076 T01831094 58030 $

10-Day Weather Forecast

Almanac

Astronomy

Dec. 06, 2016 Rise Set
Actual Time
Civil Twilight
Nautical Twilight
Astronomical Twilight
Moon
Length of Visible Light
Length of Day
Tomorrow will be .
, % of the Moon is Illuminated

Today's Extremes

State Highs State Lows

Community

WunderPhotos

Upload Photos

1,956,029 photos uploaded!

WunderBlog® & News

Nearby

Air Quality

  Air Quality AQ Index Pollutant
Not available.

Snow Depth

Station Depth Elevation

Earthquake Activity

City Distance Mag. Time & Date
Minimum magnitude displayed is 2.5.

Coastal Water Temperatures

Place Temperature

Stations

Nearby Weather Stations

Station Location Temp. Windchill Dew Point Humidity Wind Precip. Elev Updated Type
                   

Watches & Warnings

There are currently no watches in effect.